sensor_id;sensor_type;location;lat;lon;timestamp;pressure;altitude;pressure_sealevel;temperature;humidity
48527;BME280;34317;51.660;5.824;2022-07-04T00:00:48;101940.56;;;18.43;48.53
48527;BME280;34317;51.660;5.824;2022-07-04T00:03:16;101946.97;;;18.41;48.51
48527;BME280;34317;51.660;5.824;2022-07-04T00:05:43;101955.13;;;18.39;48.71
48527;BME280;34317;51.660;5.824;2022-07-04T00:08:10;101948.22;;;18.35;48.74
48527;BME280;34317;51.660;5.824;2022-07-04T00:10:37;101948.38;;;18.32;49.02
48527;BME280;34317;51.660;5.824;2022-07-04T00:13:04;101947.63;;;18.30;48.92
48527;BME280;34317;51.660;5.824;2022-07-04T00:15:32;101943.41;;;18.26;49.10
48527;BME280;34317;51.660;5.824;2022-07-04T00:18:01;101950.69;;;18.24;49.14
48527;BME280;34317;51.660;5.824;2022-07-04T00:20:28;101957.19;;;18.20;49.11
48527;BME280;34317;51.660;5.824;2022-07-04T00:22:56;101947.56;;;18.16;49.45
48527;BME280;34317;51.660;5.824;2022-07-04T00:25:23;101947.78;;;18.13;49.21
48527;BME280;34317;51.660;5.824;2022-07-04T00:27:50;101944.50;;;18.07;49.31
48527;BME280;34317;51.660;5.824;2022-07-04T00:30:17;101946.41;;;18.05;49.50
48527;BME280;34317;51.660;5.824;2022-07-04T00:32:44;101946.56;;;18.02;49.60
48527;BME280;34317;51.660;5.824;2022-07-04T00:35:12;101942.25;;;18.00;49.48
48527;BME280;34317;51.660;5.824;2022-07-04T00:37:39;101949.63;;;17.96;49.70
48527;BME280;34317;51.660;5.824;2022-07-04T00:40:08;101943.56;;;17.93;50.10
48527;BME280;34317;51.660;5.824;2022-07-04T00:42:36;101937.44;;;17.90;50.03
48527;BME280;34317;51.660;5.824;2022-07-04T00:45:03;101933.13;;;17.88;50.03
48527;BME280;34317;51.660;5.824;2022-07-04T00:47:31;101933.31;;;17.85;50.08
48527;BME280;34317;51.660;5.824;2022-07-04T00:50:01;101941.38;;;17.83;50.02
48527;BME280;34317;51.660;5.824;2022-07-04T00:52:28;101947.81;;;17.81;50.10
48527;BME280;34317;51.660;5.824;2022-07-04T00:54:55;101943.59;;;17.77;50.03
48527;BME280;34317;51.660;5.824;2022-07-04T00:57:23;101942.81;;;17.75;50.22
48527;BME280;34317;51.660;5.824;2022-07-04T00:59:50;101941.22;;;17.70;50.19
48527;BME280;34317;51.660;5.824;2022-07-04T01:02:17;101943.13;;;17.68;50.24
48527;BME280;34317;51.660;5.824;2022-07-04T01:04:47;101946.00;;;17.65;50.38
48527;BME280;34317;51.660;5.824;2022-07-04T01:07:15;101943.50;;;17.62;50.39
48527;BME280;34317;51.660;5.824;2022-07-04T01:09:43;101947.31;;;17.58;50.55
48527;BME280;34317;51.660;5.824;2022-07-04T01:12:10;101938.66;;;17.53;50.53
48527;BME280;34317;51.660;5.824;2022-07-04T01:14:38;101938.75;;;17.51;50.72
48527;BME280;34317;51.660;5.824;2022-07-04T01:17:05;101933.50;;;17.50;50.82
48527;BME280;34317;51.660;5.824;2022-07-04T01:19:33;101930.91;;;17.48;50.86
48527;BME280;34317;51.660;5.824;2022-07-04T01:22:05;101929.25;;;17.46;51.06
48527;BME280;34317;51.660;5.824;2022-07-04T01:24:33;101924.00;;;17.44;50.75
48527;BME280;34317;51.660;5.824;2022-07-04T01:27:00;101921.41;;;17.43;50.78
48527;BME280;34317;51.660;5.824;2022-07-04T01:29:28;101925.97;;;17.41;50.60
48527;BME280;34317;51.660;5.824;2022-07-04T01:31:55;101927.13;;;17.37;50.62
48527;BME280;34317;51.660;5.824;2022-07-04T01:34:22;101926.41;;;17.33;50.66
48527;BME280;34317;51.660;5.824;2022-07-04T01:36:49;101913.28;;;17.28;50.79
48527;BME280;34317;51.660;5.824;2022-07-04T01:39:16;101918.81;;;17.25;50.61
48527;BME280;34317;51.660;5.824;2022-07-04T01:41:43;101918.97;;;17.22;50.75
48527;BME280;34317;51.660;5.824;2022-07-04T01:44:10;101919.13;;;17.19;50.64
48527;BME280;34317;51.660;5.824;2022-07-04T01:46:37;101914.13;;;17.13;50.50
48527;BME280;34317;51.660;5.824;2022-07-04T01:49:05;101912.59;;;17.09;50.49
48527;BME280;34317;51.660;5.824;2022-07-04T01:51:32;101909.28;;;17.04;50.67
48527;BME280;34317;51.660;5.824;2022-07-04T01:53:59;101906.00;;;16.99;50.58
48527;BME280;34317;51.660;5.824;2022-07-04T01:56:26;101907.88;;;16.97;50.71
48527;BME280;34317;51.660;5.824;2022-07-04T01:58:54;101911.69;;;16.92;50.50
48527;BME280;34317;51.660;5.824;2022-07-04T02:01:21;101907.47;;;16.88;50.78
48527;BME280;34317;51.660;5.824;2022-07-04T02:03:58;101899.59;;;16.85;50.76
48527;BME280;34317;51.660;5.824;2022-07-04T02:06:26;101903.34;;;16.81;50.61
48527;BME280;34317;51.660;5.824;2022-07-04T02:08:53;101903.69;;;16.75;50.57
48527;BME280;34317;51.660;5.824;2022-07-04T02:11:39;101905.91;;;16.67;49.97
48527;BME280;34317;51.660;5.824;2022-07-04T02:14:25;101896.38;;;16.61;50.11
48527;BME280;34317;51.660;5.824;2022-07-04T02:16:52;101893.97;;;16.57;50.20
48527;BME280;34317;51.660;5.824;2022-07-04T02:19:20;101892.41;;;16.52;50.45
48527;BME280;34317;51.660;5.824;2022-07-04T02:21:47;101892.56;;;16.49;50.58
48527;BME280;34317;51.660;5.824;2022-07-04T02:24:14;101898.09;;;16.46;50.62
48527;BME280;34317;51.660;5.824;2022-07-04T02:26:41;101898.25;;;16.43;50.70
48527;BME280;34317;51.660;5.824;2022-07-04T02:29:09;101903.75;;;16.40;50.94
48527;BME280;34317;51.660;5.824;2022-07-04T02:31:37;101900.47;;;16.35;50.96
48527;BME280;34317;51.660;5.824;2022-07-04T02:34:04;101899.75;;;16.31;50.92
48527;BME280;34317;51.660;5.824;2022-07-04T02:36:31;101904.41;;;16.28;50.90
48527;BME280;34317;51.660;5.824;2022-07-04T02:38:58;101902.84;;;16.24;50.88
48527;BME280;34317;51.660;5.824;2022-07-04T02:41:26;101903.00;;;16.21;51.08
48527;BME280;34317;51.660;5.824;2022-07-04T02:43:54;101907.63;;;16.17;51.31
48527;BME280;34317;51.660;5.824;2022-07-04T02:46:21;101904.25;;;16.13;51.50
48527;BME280;34317;51.660;5.824;2022-07-04T02:48:48;101899.03;;;16.10;51.64
48527;BME280;34317;51.660;5.824;2022-07-04T02:51:16;101905.34;;;16.09;51.80
48527;BME280;34317;51.660;5.824;2022-07-04T02:53:44;101900.16;;;16.06;51.93
48527;BME280;34317;51.660;5.824;2022-07-04T02:56:11;101905.50;;;16.06;52.03
48527;BME280;34317;51.660;5.824;2022-07-04T02:58:38;101909.13;;;16.05;52.06
48527;BME280;34317;51.660;5.824;2022-07-04T03:01:05;101909.13;;;16.05;52.28
48527;BME280;34317;51.660;5.824;2022-07-04T03:03:33;101912.72;;;16.04;52.24
48527;BME280;34317;51.660;5.824;2022-07-04T03:06:00;101904.78;;;16.03;52.44
48527;BME280;34317;51.660;5.824;2022-07-04T03:08:31;101911.03;;;16.03;52.52
48527;BME280;34317;51.660;5.824;2022-07-04T03:10:58;101916.34;;;16.03;52.57
48527;BME280;34317;51.660;5.824;2022-07-04T03:13:25;101909.28;;;16.02;52.57
48527;BME280;34317;51.660;5.824;2022-07-04T03:15:52;101914.63;;;16.02;52.46
48527;BME280;34317;51.660;5.824;2022-07-04T03:18:20;101918.25;;;16.01;52.13
48527;BME280;34317;51.660;5.824;2022-07-04T03:20:48;101925.44;;;15.99;52.29
48527;BME280;34317;51.660;5.824;2022-07-04T03:23:15;101925.63;;;15.96;52.24
48527;BME280;34317;51.660;5.824;2022-07-04T03:25:43;101931.97;;;15.93;52.28
48527;BME280;34317;51.660;5.824;2022-07-04T03:28:10;101934.75;;;15.92;52.38
48527;BME280;34317;51.660;5.824;2022-07-04T03:30:37;101937.47;;;15.90;52.47
48527;BME280;34317;51.660;5.824;2022-07-04T03:33:04;101938.34;;;15.91;52.64
48527;BME280;34317;51.660;5.824;2022-07-04T03:35:32;101940.22;;;15.89;52.80
48527;BME280;34317;51.660;5.824;2022-07-04T03:37:59;101935.75;;;15.89;52.94
48527;BME280;34317;51.660;5.824;2022-07-04T03:40:26;101932.13;;;15.90;53.02
48527;BME280;34317;51.660;5.824;2022-07-04T03:42:58;101945.44;;;15.92;52.88
48527;BME280;34317;51.660;5.824;2022-07-04T03:45:25;101937.41;;;15.92;52.81
48527;BME280;34317;51.660;5.824;2022-07-04T03:47:53;101943.69;;;15.91;52.68
48527;BME280;34317;51.660;5.824;2022-07-04T03:50:20;101949.03;;;15.91;52.68
48527;BME280;34317;51.660;5.824;2022-07-04T03:52:47;101947.31;;;15.90;52.34
48527;BME280;34317;51.660;5.824;2022-07-04T03:55:14;101959.84;;;15.88;52.58
48527;BME280;34317;51.660;5.824;2022-07-04T03:57:42;101956.41;;;15.86;52.54
48527;BME280;34317;51.660;5.824;2022-07-04T04:00:10;101958.28;;;15.84;52.72
48527;BME280;34317;51.660;5.824;2022-07-04T04:02:38;101963.63;;;15.84;52.91
48527;BME280;34317;51.660;5.824;2022-07-04T04:05:13;101966.28;;;15.84;53.02
48527;BME280;34317;51.660;5.824;2022-07-04T04:08:01;101965.38;;;15.85;53.32
48527;BME280;34317;51.660;5.824;2022-07-04T04:10:30;101967.88;;;15.88;53.64
48527;BME280;34317;51.660;5.824;2022-07-04T04:13:00;101968.69;;;15.90;53.66
48527;BME280;34317;51.660;5.824;2022-07-04T04:15:27;101973.84;;;15.93;53.91
48527;BME280;34317;51.660;5.824;2022-07-04T04:17:54;101975.44;;;15.97;53.89
48527;BME280;34317;51.660;5.824;2022-07-04T04:20:21;101981.50;;;16.01;54.06
48527;BME280;34317;51.660;5.824;2022-07-04T04:22:48;101989.31;;;16.05;54.07
48527;BME280;34317;51.660;5.824;2022-07-04T04:25:17;101990.88;;;16.09;54.39
48527;BME280;34317;51.660;5.824;2022-07-04T04:27:44;101987.94;;;16.14;54.10
48527;BME280;34317;51.660;5.824;2022-07-04T04:30:12;101983.31;;;16.18;54.51
48527;BME280;34317;51.660;5.824;2022-07-04T04:32:40;101984.88;;;16.22;54.54
48527;BME280;34317;51.660;5.824;2022-07-04T04:35:07;101984.59;;;16.28;54.61
48527;BME280;34317;51.660;5.824;2022-07-04T04:37:35;102000.31;;;16.34;54.56
48527;BME280;34317;51.660;5.824;2022-07-04T04:40:02;101998.28;;;16.39;54.47
48527;BME280;34317;51.660;5.824;2022-07-04T04:42:29;101998.13;;;16.42;54.51
48527;BME280;34317;51.660;5.824;2022-07-04T04:44:57;101996.06;;;16.47;54.68
48527;BME280;34317;51.660;5.824;2022-07-04T04:47:24;102001.09;;;16.53;54.52
48527;BME280;34317;51.660;5.824;2022-07-04T04:49:51;101995.47;;;16.60;54.85
48527;BME280;34317;51.660;5.824;2022-07-04T04:52:18;102002.03;;;16.70;55.19
48527;BME280;34317;51.660;5.824;2022-07-04T04:54:45;101997.81;;;16.83;55.43
48527;BME280;34317;51.660;5.824;2022-07-04T04:57:13;101989.91;;;16.98;55.30
48527;BME280;34317;51.660;5.824;2022-07-04T04:59:42;101989.09;;;17.13;55.41
48527;BME280;34317;51.660;5.824;2022-07-04T05:02:09;101986.53;;;17.27;54.93
48527;BME280;34317;51.660;5.824;2022-07-04T05:04:42;101977.63;;;17.43;54.70
48527;BME280;34317;51.660;5.824;2022-07-04T05:07:10;101983.25;;;17.54;54.48
48527;BME280;34317;51.660;5.824;2022-07-04T05:09:37;101984.47;;;17.64;54.27
48527;BME280;34317;51.660;5.824;2022-07-04T05:12:06;101983.25;;;17.70;53.89
48527;BME280;34317;51.660;5.824;2022-07-04T05:14:33;101974.97;;;17.75;53.89
48527;BME280;34317;51.660;5.824;2022-07-04T05:17:00;101976.50;;;17.79;53.63
48527;BME280;34317;51.660;5.824;2022-07-04T05:19:28;101972.69;;;17.83;53.70
48527;BME280;34317;51.660;5.824;2022-07-04T05:21:56;101985.00;;;17.87;53.47
48527;BME280;34317;51.660;5.824;2022-07-04T05:24:23;101980.41;;;17.89;53.53
48527;BME280;34317;51.660;5.824;2022-07-04T05:26:50;101982.91;;;17.92;53.36
48527;BME280;34317;51.660;5.824;2022-07-04T05:29:23;101982.75;;;17.95;53.49
48527;BME280;34317;51.660;5.824;2022-07-04T05:31:50;101978.94;;;17.99;53.41
48527;BME280;34317;51.660;5.824;2022-07-04T05:34:18;101984.09;;;18.02;53.33
48527;BME280;34317;51.660;5.824;2022-07-04T05:36:45;101984.78;;;18.06;53.40
48527;BME280;34317;51.660;5.824;2022-07-04T05:39:13;101983.56;;;18.12;53.58
48527;BME280;34317;51.660;5.824;2022-07-04T05:41:40;101983.22;;;18.18;53.48
48527;BME280;34317;51.660;5.824;2022-07-04T05:44:08;101982.84;;;18.24;53.61
48527;BME280;34317;51.660;5.824;2022-07-04T05:46:35;101979.72;;;18.32;53.58
48527;BME280;34317;51.660;5.824;2022-07-04T05:49:02;101990.06;;;18.38;53.61
48527;BME280;34317;51.660;5.824;2022-07-04T05:51:29;101986.06;;;18.45;53.66
48527;BME280;34317;51.660;5.824;2022-07-04T05:53:57;101991.94;;;18.52;53.79
48527;BME280;34317;51.660;5.824;2022-07-04T05:56:24;101994.16;;;18.59;53.77
48527;BME280;34317;51.660;5.824;2022-07-04T05:58:52;101992.94;;;18.65;53.86
48527;BME280;34317;51.660;5.824;2022-07-04T06:01:19;101990.63;;;18.73;53.88
48527;BME280;34317;51.660;5.824;2022-07-04T06:03:47;101994.63;;;18.82;54.16
48527;BME280;34317;51.660;5.824;2022-07-04T06:06:15;101992.31;;;18.90;53.87
48527;BME280;34317;51.660;5.824;2022-07-04T06:08:43;101992.59;;;19.00;53.96
48527;BME280;34317;51.660;5.824;2022-07-04T06:11:10;101995.47;;;19.11;53.84
48527;BME280;34317;51.660;5.824;2022-07-04T06:13:38;101992.97;;;19.22;53.73
48527;BME280;34317;51.660;5.824;2022-07-04T06:16:05;101995.84;;;19.34;53.50
48527;BME280;34317;51.660;5.824;2022-07-04T06:18:32;101995.06;;;19.46;53.99
48527;BME280;34317;51.660;5.824;2022-07-04T06:20:59;101988.69;;;19.61;53.73
48527;BME280;34317;51.660;5.824;2022-07-04T06:23:26;101996.53;;;19.79;53.57
48527;BME280;34317;51.660;5.824;2022-07-04T06:25:53;101997.47;;;19.92;53.33
48527;BME280;34317;51.660;5.824;2022-07-04T06:28:21;101996.66;;;20.05;53.03
48527;BME280;34317;51.660;5.824;2022-07-04T06:31:08;101996.03;;;20.14;52.70
48527;BME280;34317;51.660;5.824;2022-07-04T06:33:35;102001.84;;;20.20;52.49
48527;BME280;34317;51.660;5.824;2022-07-04T06:36:23;102002.31;;;20.27;52.32
48527;BME280;34317;51.660;5.824;2022-07-04T06:38:50;102007.47;;;20.30;52.23
48527;BME280;34317;51.660;5.824;2022-07-04T06:41:18;102003.63;;;20.34;52.17
48527;BME280;34317;51.660;5.824;2022-07-04T06:43:45;101989.53;;;20.43;52.29
48527;BME280;34317;51.660;5.824;2022-07-04T06:46:12;102000.41;;;20.55;52.25
48527;BME280;34317;51.660;5.824;2022-07-04T06:48:39;101995.84;;;20.70;52.00
48527;BME280;34317;51.660;5.824;2022-07-04T06:51:07;101994.00;;;20.83;51.92
48527;BME280;34317;51.660;5.824;2022-07-04T06:53:34;102001.13;;;20.97;51.86
48527;BME280;34317;51.660;5.824;2022-07-04T06:56:01;101999.19;;;21.12;51.40
48527;BME280;34317;51.660;5.824;2022-07-04T06:58:28;101989.25;;;21.25;51.29
48527;BME280;34317;51.660;5.824;2022-07-04T07:00:55;101990.94;;;21.39;51.11
48527;BME280;34317;51.660;5.824;2022-07-04T07:03:23;101989.63;;;21.57;51.11
48527;BME280;34317;51.660;5.824;2022-07-04T07:05:50;102004.22;;;21.79;50.85
48527;BME280;34317;51.660;5.824;2022-07-04T07:08:26;102003.09;;;21.94;50.41
48527;BME280;34317;51.660;5.824;2022-07-04T07:10:58;102006.06;;;22.03;50.24
48527;BME280;34317;51.660;5.824;2022-07-04T07:13:47;101996.28;;;22.13;49.73
48527;BME280;34317;51.660;5.824;2022-07-04T07:16:15;101994.09;;;22.18;49.92
48527;BME280;34317;51.660;5.824;2022-07-04T07:18:43;101991.69;;;22.26;49.50
48527;BME280;34317;51.660;5.824;2022-07-04T07:21:11;101989.53;;;22.31;49.09
48527;BME280;34317;51.660;5.824;2022-07-04T07:23:41;101988.81;;;22.41;49.31
48527;BME280;34317;51.660;5.824;2022-07-04T07:26:09;101990.56;;;22.53;49.32
48527;BME280;34317;51.660;5.824;2022-07-04T07:28:36;101982.25;;;22.67;49.23
48527;BME280;34317;51.660;5.824;2022-07-04T07:31:03;101971.97;;;22.84;49.39
48527;BME280;34317;51.660;5.824;2022-07-04T07:33:31;101971.72;;;22.98;48.89
48527;BME280;34317;51.660;5.824;2022-07-04T07:35:58;101982.06;;;23.04;48.22
48527;BME280;34317;51.660;5.824;2022-07-04T07:38:25;101987.56;;;23.03;47.89
48527;BME280;34317;51.660;5.824;2022-07-04T07:40:52;101992.13;;;23.02;47.70
48527;BME280;34317;51.660;5.824;2022-07-04T07:43:19;101992.63;;;23.07;47.77
48527;BME280;34317;51.660;5.824;2022-07-04T07:45:46;101995.31;;;23.19;47.94
48527;BME280;34317;51.660;5.824;2022-07-04T07:48:14;102001.50;;;23.32;47.91
48527;BME280;34317;51.660;5.824;2022-07-04T07:50:41;101987.69;;;23.46;47.76
48527;BME280;34317;51.660;5.824;2022-07-04T07:53:08;101990.13;;;23.61;47.50
48527;BME280;34317;51.660;5.824;2022-07-04T07:55:35;101991.06;;;23.71;47.17
48527;BME280;34317;51.660;5.824;2022-07-04T07:58:02;101978.69;;;23.80;47.07
48527;BME280;34317;51.660;5.824;2022-07-04T08:00:29;101978.50;;;23.93;47.05
48527;BME280;34317;51.660;5.824;2022-07-04T08:03:16;101962.97;;;24.06;46.78
48527;BME280;34317;51.660;5.824;2022-07-04T08:06:02;101970.75;;;24.20;46.51
48527;BME280;34317;51.660;5.824;2022-07-04T08:08:30;101971.69;;;24.31;46.41
48527;BME280;34317;51.660;5.824;2022-07-04T08:10:57;101961.78;;;24.41;46.23
48527;BME280;34317;51.660;5.824;2022-07-04T08:13:24;101956.44;;;24.51;46.00
48527;BME280;34317;51.660;5.824;2022-07-04T08:15:51;101967.38;;;24.60;45.90
48527;BME280;34317;51.660;5.824;2022-07-04T08:18:19;101970.25;;;24.68;45.53
48527;BME280;34317;51.660;5.824;2022-07-04T08:20:46;101963.31;;;24.76;45.24
48527;BME280;34317;51.660;5.824;2022-07-04T08:23:31;101965.94;;;24.87;45.08
48527;BME280;34317;51.660;5.824;2022-07-04T08:25:59;101964.09;;;24.97;44.77
48527;BME280;34317;51.660;5.824;2022-07-04T08:28:27;101969.00;;;25.03;44.71
48527;BME280;34317;51.660;5.824;2022-07-04T08:30:55;101974.13;;;25.06;44.46
48527;BME280;34317;51.660;5.824;2022-07-04T08:33:24;101960.19;;;25.11;44.30
48527;BME280;34317;51.660;5.824;2022-07-04T08:35:51;101962.22;;;25.19;44.59
48527;BME280;34317;51.660;5.824;2022-07-04T08:38:21;101963.97;;;25.30;44.41
48527;BME280;34317;51.660;5.824;2022-07-04T08:40:50;101967.44;;;25.41;44.51
48527;BME280;34317;51.660;5.824;2022-07-04T08:43:22;101977.75;;;25.57;44.39
48527;BME280;34317;51.660;5.824;2022-07-04T08:45:52;101982.91;;;25.70;44.08
48527;BME280;34317;51.660;5.824;2022-07-04T08:48:41;101976.50;;;25.81;43.65
48527;BME280;34317;51.660;5.824;2022-07-04T08:51:12;101981.22;;;25.89;43.36
48527;BME280;34317;51.660;5.824;2022-07-04T08:53:50;101977.97;;;25.95;43.45
48527;BME280;34317;51.660;5.824;2022-07-04T08:56:19;101979.84;;;26.04;43.43
48527;BME280;34317;51.660;5.824;2022-07-04T08:59:07;101974.53;;;26.12;43.43
48527;BME280;34317;51.660;5.824;2022-07-04T09:01:36;101988.97;;;26.22;42.98
48527;BME280;34317;51.660;5.824;2022-07-04T09:04:06;101978.94;;;26.33;42.97
48527;BME280;34317;51.660;5.824;2022-07-04T09:06:36;101984.69;;;26.39;42.32
48527;BME280;34317;51.660;5.824;2022-07-04T09:09:03;101990.69;;;26.43;42.16
48527;BME280;34317;51.660;5.824;2022-07-04T09:11:32;101985.25;;;26.43;41.88
48527;BME280;34317;51.660;5.824;2022-07-04T09:14:00;101988.94;;;26.42;41.71
48527;BME280;34317;51.660;5.824;2022-07-04T09:16:27;101980.53;;;26.45;41.88
48527;BME280;34317;51.660;5.824;2022-07-04T09:18:54;101978.06;;;26.52;41.78
48527;BME280;34317;51.660;5.824;2022-07-04T09:21:42;101977.78;;;26.65;42.18
48527;BME280;34317;51.660;5.824;2022-07-04T09:24:10;101974.91;;;26.76;41.41
48527;BME280;34317;51.660;5.824;2022-07-04T09:26:40;101978.59;;;26.85;40.84
48527;BME280;34317;51.660;5.824;2022-07-04T09:29:10;101973.41;;;26.91;41.05
48527;BME280;34317;51.660;5.824;2022-07-04T09:31:38;101971.38;;;26.93;40.50
48527;BME280;34317;51.660;5.824;2022-07-04T09:34:06;101976.81;;;26.93;40.32
48527;BME280;34317;51.660;5.824;2022-07-04T09:36:41;101979.25;;;26.96;40.12
48527;BME280;34317;51.660;5.824;2022-07-04T09:39:17;101973.34;;;27.01;39.70
48527;BME280;34317;51.660;5.824;2022-07-04T09:42:03;101980.94;;;27.07;40.13
48527;BME280;34317;51.660;5.824;2022-07-04T09:44:45;101980.47;;;27.12;39.57
48527;BME280;34317;51.660;5.824;2022-07-04T09:47:26;101980.19;;;27.15;39.11
48527;BME280;34317;51.660;5.824;2022-07-04T09:50:09;101971.41;;;27.21;39.66
48527;BME280;34317;51.660;5.824;2022-07-04T09:53:00;101972.72;;;27.27;39.39
48527;BME280;34317;51.660;5.824;2022-07-04T09:55:31;101979.56;;;27.31;39.15
48527;BME280;34317;51.660;5.824;2022-07-04T09:58:00;101978.41;;;27.33;38.62
48527;BME280;34317;51.660;5.824;2022-07-04T10:00:33;101976.69;;;27.32;38.84
48527;BME280;34317;51.660;5.824;2022-07-04T10:03:27;101982.75;;;27.26;38.99
48527;BME280;34317;51.660;5.824;2022-07-04T10:06:06;101979.00;;;27.27;38.77
48527;BME280;34317;51.660;5.824;2022-07-04T10:08:34;101972.28;;;27.31;39.11
48527;BME280;34317;51.660;5.824;2022-07-04T10:11:03;101965.50;;;27.35;38.83
48527;BME280;34317;51.660;5.824;2022-07-04T10:13:36;101964.91;;;27.42;38.81
48527;BME280;34317;51.660;5.824;2022-07-04T10:16:03;101969.44;;;27.51;38.61
48527;BME280;34317;51.660;5.824;2022-07-04T10:18:31;101957.91;;;27.57;38.55
48527;BME280;34317;51.660;5.824;2022-07-04T10:20:58;101969.63;;;27.67;38.87
48527;BME280;34317;51.660;5.824;2022-07-04T10:23:25;101953.34;;;27.75;38.62
48527;BME280;34317;51.660;5.824;2022-07-04T10:25:58;101956.84;;;27.86;38.83
48527;BME280;34317;51.660;5.824;2022-07-04T10:28:26;101950.34;;;27.96;38.45
48527;BME280;34317;51.660;5.824;2022-07-04T10:30:55;101951.28;;;28.05;37.95
48527;BME280;34317;51.660;5.824;2022-07-04T10:33:26;101943.47;;;28.10;37.63
48527;BME280;34317;51.660;5.824;2022-07-04T10:35:56;101946.91;;;28.12;37.71
48527;BME280;34317;51.660;5.824;2022-07-04T10:38:26;101948.31;;;28.17;37.31
48527;BME280;34317;51.660;5.824;2022-07-04T10:40:55;101951.72;;;28.19;36.85
48527;BME280;34317;51.660;5.824;2022-07-04T10:54:02;101937.41;;;28.17;37.16
48527;BME280;34317;51.660;5.824;2022-07-04T10:56:34;101935.69;;;28.15;36.89
48527;BME280;34317;51.660;5.824;2022-07-04T10:59:25;101939.44;;;28.14;37.14
48527;BME280;34317;51.660;5.824;2022-07-04T11:02:39;101927.66;;;28.14;36.74
48527;BME280;34317;51.660;5.824;2022-07-04T11:05:02;101934.84;;;28.15;37.11
48527;BME280;34317;51.660;5.824;2022-07-04T11:18:12;101932.31;;;28.22;36.89
48527;BME280;34317;51.660;5.824;2022-07-04T11:20:45;101919.41;;;28.24;36.62
48527;BME280;34317;51.660;5.824;2022-07-04T11:23:17;101922.84;;;28.26;36.92
48527;BME280;34317;51.660;5.824;2022-07-04T11:25:47;101929.81;;;28.28;36.33
48527;BME280;34317;51.660;5.824;2022-07-04T11:28:18;101923.16;;;28.23;36.09
48527;BME280;34317;51.660;5.824;2022-07-04T11:31:06;101919.34;;;28.15;36.47
48527;BME280;34317;51.660;5.824;2022-07-04T11:33:34;101921.66;;;28.10;36.38
48527;BME280;34317;51.660;5.824;2022-07-04T11:36:13;101924.03;;;28.05;36.16
48527;BME280;34317;51.660;5.824;2022-07-04T11:41:27;101922.66;;;28.01;36.79
48527;BME280;34317;51.660;5.824;2022-07-04T11:44:40;101919.84;;;27.93;37.07
48527;BME280;34317;51.660;5.824;2022-07-04T11:47:41;101917.03;;;27.85;36.83
48527;BME280;34317;51.660;5.824;2022-07-04T11:50:15;101918.66;;;27.77;37.25
48527;BME280;34317;51.660;5.824;2022-07-04T11:55:33;101924.72;;;27.53;37.52
48527;BME280;34317;51.660;5.824;2022-07-04T11:58:00;101921.06;;;27.45;37.93
48527;BME280;34317;51.660;5.824;2022-07-04T12:00:28;101913.50;;;27.38;37.88
48527;BME280;34317;51.660;5.824;2022-07-04T12:03:00;101911.41;;;27.32;37.67
48527;BME280;34317;51.660;5.824;2022-07-04T12:05:28;101912.00;;;27.26;38.01
48527;BME280;34317;51.660;5.824;2022-07-04T12:07:55;101905.72;;;27.16;37.43
48527;BME280;34317;51.660;5.824;2022-07-04T12:10:42;101904.94;;;27.06;37.77
48527;BME280;34317;51.660;5.824;2022-07-04T12:13:15;101893.81;;;26.99;37.92
48527;BME280;34317;51.660;5.824;2022-07-04T12:15:46;101902.84;;;26.99;38.15
48527;BME280;34317;51.660;5.824;2022-07-04T12:18:17;101905.22;;;27.03;37.78
48527;BME280;34317;51.660;5.824;2022-07-04T12:20:46;101900.91;;;27.10;38.12
48527;BME280;34317;51.660;5.824;2022-07-04T12:23:15;101899.69;;;27.22;38.25
48527;BME280;34317;51.660;5.824;2022-07-04T12:25:45;101910.41;;;27.33;38.32
48527;BME280;34317;51.660;5.824;2022-07-04T12:28:14;101893.84;;;27.45;37.47
48527;BME280;34317;51.660;5.824;2022-07-04T12:30:55;101900.69;;;27.49;36.76
48527;BME280;34317;51.660;5.824;2022-07-04T12:33:25;101893.53;;;27.48;36.53
48527;BME280;34317;51.660;5.824;2022-07-04T12:35:56;101900.06;;;27.55;36.42
48527;BME280;34317;51.660;5.824;2022-07-04T12:41:08;101888.72;;;27.77;36.75
48527;BME280;34317;51.660;5.824;2022-07-04T12:46:08;101879.06;;;28.01;36.15
48527;BME280;34317;51.660;5.824;2022-07-04T12:48:36;101868.38;;;28.08;35.87
48527;BME280;34317;51.660;5.824;2022-07-04T12:53:38;101881.84;;;28.35;35.08
48527;BME280;34317;51.660;5.824;2022-07-04T12:56:07;101881.09;;;28.51;34.76
48527;BME280;34317;51.660;5.824;2022-07-04T12:58:34;101868.94;;;28.64;34.30
48527;BME280;34317;51.660;5.824;2022-07-04T13:01:02;101885.00;;;28.75;34.26
48527;BME280;34317;51.660;5.824;2022-07-04T13:03:30;101882.97;;;28.85;34.63
48527;BME280;34317;51.660;5.824;2022-07-04T13:05:57;101874.16;;;28.91;34.56
48527;BME280;34317;51.660;5.824;2022-07-04T13:08:24;101876.53;;;28.95;34.90
48527;BME280;34317;51.660;5.824;2022-07-04T13:10:52;101872.06;;;28.85;34.32
48527;BME280;34317;51.660;5.824;2022-07-04T13:13:39;101878.84;;;28.73;35.03
48527;BME280;34317;51.660;5.824;2022-07-04T13:16:06;101875.44;;;28.71;35.45
48527;BME280;34317;51.660;5.824;2022-07-04T13:18:33;101877.66;;;28.76;35.71
48527;BME280;34317;51.660;5.824;2022-07-04T13:21:01;101880.22;;;28.77;35.37
48527;BME280;34317;51.660;5.824;2022-07-04T13:23:28;101872.06;;;28.77;35.31
48527;BME280;34317;51.660;5.824;2022-07-04T13:25:55;101876.81;;;28.75;35.12
48527;BME280;34317;51.660;5.824;2022-07-04T13:28:22;101872.22;;;28.76;35.47
48527;BME280;34317;51.660;5.824;2022-07-04T13:30:50;101874.47;;;28.80;35.58
48527;BME280;34317;51.660;5.824;2022-07-04T13:33:17;101867.31;;;28.87;35.49
48527;BME280;34317;51.660;5.824;2022-07-04T13:35:44;101859.84;;;28.98;35.03
48527;BME280;34317;51.660;5.824;2022-07-04T13:38:11;101864.31;;;29.07;35.02